Bartow, Florida
Current Conditions -  °F | °C
As of 9:55 PM on Friday 31 Oct 2014 (Local Time) from KBOW Reporting Station
Clear Clear  
Wind Chill: 64°   Ceiling: Unl
Heat Index: 64°   Visibility: 10mi
Dew Point: 50°   Wind: 10mph
Humidity: 59%   Direction: 290°WNW
Pressure: 29.92"   Gusts: NA
Location:  27.9°N, 81.84°W
Report Text: KBOW 010155Z AUTO 29009KT 10SM CLR 18/10 A2992 RMK AO2
Loading
Personal Weather Stations






























Interactive Weather Map
Tropical Storm Tracking
New forecast layout! Learn more

10-Day Weather Forecast

Advertisements
Track Severe Weather on mobile